< < Back
Terminal Aerodrome Forecast


Current Version              Previous Versions:   1  2  3  4  5  6  7  8  9  

Terminal Aerodrome Forecast

770
FTUS42 KGSP 212000 AAA
TAFCLT
TAF AMD
KCLT 212058Z 2121/2218 30008G16KT P6SM SCT070
     FM220000 34008KT P6SM SKC=

Latest METAR

394
SAUS70 KWBC 220800
MTRCLT
METAR KCLT 220752Z 35011KT 10SM CLR 09/02 A2998 RMK AO2 SLP148
T00940022


USA.gov is the U.S. government's official web portal to all federal, state and local government web resources and services.